sensor_id;sensor_type;location;lat;lon;timestamp;pressure;altitude;pressure_sealevel;temperature;humidity
59513;BME280;45330;51.634;5.562;2022-10-16T00:01:33;100927.38;;;10.49;100.00
59513;BME280;45330;51.634;5.562;2022-10-16T00:04:00;100938.66;;;10.54;100.00
59513;BME280;45330;51.634;5.562;2022-10-16T00:06:26;100947.28;;;10.59;100.00
59513;BME280;45330;51.634;5.562;2022-10-16T00:08:52;100926.53;;;10.45;100.00
59513;BME280;45330;51.634;5.562;2022-10-16T00:11:26;100933.44;;;10.49;100.00
59513;BME280;45330;51.634;5.562;2022-10-16T00:13:55;100937.75;;;10.52;100.00
59513;BME280;45330;51.634;5.562;2022-10-16T00:16:21;100940.38;;;10.49;100.00
59513;BME280;45330;51.634;5.562;2022-10-16T00:18:47;100938.66;;;10.47;100.00
59513;BME280;45330;51.634;5.562;2022-10-16T00:21:15;100923.13;;;10.35;100.00
59513;BME280;45330;51.634;5.562;2022-10-16T00:23:41;100936.94;;;10.40;100.00
59513;BME280;45330;51.634;5.562;2022-10-16T00:26:10;100923.97;;;10.26;100.00
59513;BME280;45330;51.634;5.562;2022-10-16T00:28:36;100943.03;;;10.36;100.00
59513;BME280;45330;51.634;5.562;2022-10-16T00:31:04;100943.03;;;10.36;100.00
59513;BME280;45330;51.634;5.562;2022-10-16T00:33:30;100932.63;;;10.28;100.00
59513;BME280;45330;51.634;5.562;2022-10-16T00:35:58;100923.09;;;10.26;100.00
59513;BME280;45330;51.634;5.562;2022-10-16T00:38:23;100945.63;;;10.33;100.00
59513;BME280;45330;51.634;5.562;2022-10-16T00:40:49;100928.34;;;10.20;100.00
59513;BME280;45330;51.634;5.562;2022-10-16T00:46:01;100923.13;;;10.13;100.00
59513;BME280;45330;51.634;5.562;2022-10-16T00:48:28;100938.72;;;10.18;100.00
59513;BME280;45330;51.634;5.562;2022-10-16T00:50:54;100943.94;;;10.21;100.00
59513;BME280;45330;51.634;5.562;2022-10-16T00:53:19;100934.41;;;10.08;100.00
59513;BME280;45330;51.634;5.562;2022-10-16T00:55:45;100946.53;;;10.18;100.00
59513;BME280;45330;51.634;5.562;2022-10-16T00:58:11;100924.03;;;10.05;100.00
59513;BME280;45330;51.634;5.562;2022-10-16T01:00:37;100949.13;;;10.13;100.00
59513;BME280;45330;51.634;5.562;2022-10-16T01:03:21;100935.28;;;10.05;100.00
59513;BME280;45330;51.634;5.562;2022-10-16T01:05:53;100960.41;;;10.16;100.00
59513;BME280;45330;51.634;5.562;2022-10-16T01:08:32;100936.16;;;10.07;100.00
59513;BME280;45330;51.634;5.562;2022-10-16T01:14:14;100924.91;;;10.04;100.00
59513;BME280;45330;51.634;5.562;2022-10-16T01:16:49;100934.44;;;10.06;100.00
59513;BME280;45330;51.634;5.562;2022-10-16T01:19:31;100935.31;;;10.08;100.00
59513;BME280;45330;51.634;5.562;2022-10-16T01:22:00;100943.09;;;10.15;100.00
59513;BME280;45330;51.634;5.562;2022-10-16T01:24:39;100949.13;;;10.21;100.00
59513;BME280;45330;51.634;5.562;2022-10-16T01:29:52;100946.47;;;10.32;100.00
59513;BME280;45330;51.634;5.562;2022-10-16T01:32:32;100943.88;;;10.32;100.00
59513;BME280;45330;51.634;5.562;2022-10-16T01:35:09;100928.31;;;10.23;100.00
59513;BME280;45330;51.634;5.562;2022-10-16T01:38:04;100932.66;;;10.25;100.00
59513;BME280;45330;51.634;5.562;2022-10-16T01:40:34;100943.94;;;10.35;100.00
59513;BME280;45330;51.634;5.562;2022-10-16T01:43:13;100937.81;;;10.38;100.00
59513;BME280;45330;51.634;5.562;2022-10-16T01:45:40;100923.13;;;10.35;100.00
59513;BME280;45330;51.634;5.562;2022-10-16T01:48:06;100950.81;;;10.44;100.00
59513;BME280;45330;51.634;5.562;2022-10-16T01:50:37;100926.56;;;10.33;100.00
59513;BME280;45330;51.634;5.562;2022-10-16T01:53:07;100930.03;;;10.32;100.00
59513;BME280;45330;51.634;5.562;2022-10-16T01:55:38;100945.63;;;10.42;100.00
59513;BME280;45330;51.634;5.562;2022-10-16T01:58:07;100935.22;;;10.33;100.00
59513;BME280;45330;51.634;5.562;2022-10-16T02:00:34;100950.84;;;10.39;100.00
59513;BME280;45330;51.634;5.562;2022-10-16T02:03:02;100951.69;;;10.40;100.00
59513;BME280;45330;51.634;5.562;2022-10-16T02:05:32;100940.44;;;10.30;100.00
59513;BME280;45330;51.634;5.562;2022-10-16T02:07:59;100955.16;;;10.39;100.00
59513;BME280;45330;51.634;5.562;2022-10-16T02:10:25;100920.50;;;10.24;100.00
59513;BME280;45330;51.634;5.562;2022-10-16T02:13:08;100952.56;;;10.42;100.00
59513;BME280;45330;51.634;5.562;2022-10-16T02:15:35;100959.47;;;10.44;100.00
59513;BME280;45330;51.634;5.562;2022-10-16T02:18:02;100962.09;;;10.44;100.00
59513;BME280;45330;51.634;5.562;2022-10-16T02:20:34;100954.28;;;10.41;100.00
59513;BME280;45330;51.634;5.562;2022-10-16T02:23:03;100968.16;;;10.43;100.00
59513;BME280;45330;51.634;5.562;2022-10-16T02:25:40;100943.91;;;10.26;100.00
59513;BME280;45330;51.634;5.562;2022-10-16T02:28:14;100939.56;;;10.28;100.00
59513;BME280;45330;51.634;5.562;2022-10-16T02:30:50;100954.31;;;10.29;100.00
59513;BME280;45330;51.634;5.562;2022-10-16T02:33:18;100927.50;;;10.13;100.00
59513;BME280;45330;51.634;5.562;2022-10-16T02:35:47;100912.78;;;10.00;100.00
59513;BME280;45330;51.634;5.562;2022-10-16T02:38:14;100962.13;;;10.18;100.00
59513;BME280;45330;51.634;5.562;2022-10-16T02:40:40;100935.31;;;9.99;100.00
59513;BME280;45330;51.634;5.562;2022-10-16T02:43:06;100949.19;;;10.04;100.00
59513;BME280;45330;51.634;5.562;2022-10-16T02:45:31;100950.03;;;9.94;100.00
59513;BME280;45330;51.634;5.562;2022-10-16T02:47:57;100956.13;;;9.90;100.00
59513;BME280;45330;51.634;5.562;2022-10-16T02:50:22;100949.22;;;9.89;100.00
59513;BME280;45330;51.634;5.562;2022-10-16T02:52:49;100955.25;;;9.95;100.00
59513;BME280;45330;51.634;5.562;2022-10-16T02:55:14;100933.63;;;9.89;100.00
59513;BME280;45330;51.634;5.562;2022-10-16T02:57:40;100945.72;;;9.96;100.00
59513;BME280;45330;51.634;5.562;2022-10-16T03:00:07;100937.09;;;9.86;100.00
59513;BME280;45330;51.634;5.562;2022-10-16T03:02:33;100953.53;;;9.93;100.00
59513;BME280;45330;51.634;5.562;2022-10-16T03:04:58;100937.91;;;9.90;100.00
59513;BME280;45330;51.634;5.562;2022-10-16T03:07:24;100960.47;;;9.91;100.00
59513;BME280;45330;51.634;5.562;2022-10-16T03:09:49;100956.16;;;9.82;100.00
59513;BME280;45330;51.634;5.562;2022-10-16T03:12:14;100950.06;;;9.75;100.00
59513;BME280;45330;51.634;5.562;2022-10-16T03:14:39;100961.31;;;9.87;100.00
59513;BME280;45330;51.634;5.562;2022-10-16T03:17:05;100963.06;;;9.85;100.00
59513;BME280;45330;51.634;5.562;2022-10-16T03:19:31;100951.81;;;9.70;100.00
59513;BME280;45330;51.634;5.562;2022-10-16T03:21:56;100967.41;;;9.81;100.00
59513;BME280;45330;51.634;5.562;2022-10-16T03:24:22;100976.06;;;9.80;100.00
59513;BME280;45330;51.634;5.562;2022-10-16T03:26:48;100965.69;;;9.69;100.00
59513;BME280;45330;51.634;5.562;2022-10-16T03:29:13;100969.13;;;9.70;100.00
59513;BME280;45330;51.634;5.562;2022-10-16T03:31:38;100996.84;;;9.78;100.00
59513;BME280;45330;51.634;5.562;2022-10-16T03:34:04;100985.59;;;9.76;100.00
59513;BME280;45330;51.634;5.562;2022-10-16T03:36:29;100984.72;;;9.70;100.00
59513;BME280;45330;51.634;5.562;2022-10-16T03:38:54;100997.75;;;9.77;100.00
59513;BME280;45330;51.634;5.562;2022-10-16T03:41:20;100994.25;;;9.78;100.00
59513;BME280;45330;51.634;5.562;2022-10-16T03:43:45;100974.34;;;9.67;100.00
59513;BME280;45330;51.634;5.562;2022-10-16T03:46:10;100986.44;;;9.80;100.00
59513;BME280;45330;51.634;5.562;2022-10-16T03:48:36;100983.84;;;9.82;100.00
59513;BME280;45330;51.634;5.562;2022-10-16T03:51:02;100993.41;;;9.90;100.00
59513;BME280;45330;51.634;5.562;2022-10-16T03:53:27;100977.78;;;9.93;100.00
59513;BME280;45330;51.634;5.562;2022-10-16T03:55:52;100989.03;;;9.94;100.00
59513;BME280;45330;51.634;5.562;2022-10-16T03:58:18;101000.31;;;9.98;100.00
59513;BME280;45330;51.634;5.562;2022-10-16T04:00:45;100996.84;;;10.02;100.00
59513;BME280;45330;51.634;5.562;2022-10-16T04:03:11;100980.41;;;9.90;100.00
59513;BME280;45330;51.634;5.562;2022-10-16T04:05:36;100983.84;;;9.89;100.00
59513;BME280;45330;51.634;5.562;2022-10-16T04:08:02;100986.47;;;9.86;100.00
59513;BME280;45330;51.634;5.562;2022-10-16T04:10:27;100987.31;;;9.88;100.00
59513;BME280;45330;51.634;5.562;2022-10-16T04:12:53;101002.91;;;10.01;100.00
59513;BME280;45330;51.634;5.562;2022-10-16T04:15:24;100987.31;;;9.91;100.00
59513;BME280;45330;51.634;5.562;2022-10-16T04:17:50;100990.78;;;9.95;100.00
59513;BME280;45330;51.634;5.562;2022-10-16T04:20:15;101001.19;;;9.95;100.00
59513;BME280;45330;51.634;5.562;2022-10-16T04:22:41;100996.00;;;10.03;100.00
59513;BME280;45330;51.634;5.562;2022-10-16T04:25:07;100995.09;;;10.02;100.00
59513;BME280;45330;51.634;5.562;2022-10-16T04:27:32;101002.88;;;10.05;100.00
59513;BME280;45330;51.634;5.562;2022-10-16T04:29:59;101016.78;;;10.07;100.00
59513;BME280;45330;51.634;5.562;2022-10-16T04:32:25;101019.38;;;10.10;100.00
59513;BME280;45330;51.634;5.562;2022-10-16T04:34:50;101021.94;;;10.17;100.00
59513;BME280;45330;51.634;5.562;2022-10-16T04:37:16;100984.69;;;10.10;100.00
59513;BME280;45330;51.634;5.562;2022-10-16T04:39:41;101005.47;;;10.16;100.00
59513;BME280;45330;51.634;5.562;2022-10-16T04:42:06;101010.69;;;10.18;100.00
59513;BME280;45330;51.634;5.562;2022-10-16T04:44:32;101016.75;;;10.13;100.00
59513;BME280;45330;51.634;5.562;2022-10-16T04:46:57;101024.53;;;10.17;100.00
59513;BME280;45330;51.634;5.562;2022-10-16T04:49:22;101008.97;;;10.06;100.00
59513;BME280;45330;51.634;5.562;2022-10-16T04:51:48;101015.88;;;10.07;100.00
59513;BME280;45330;51.634;5.562;2022-10-16T04:54:13;101031.50;;;10.15;100.00
59513;BME280;45330;51.634;5.562;2022-10-16T04:56:38;101016.78;;;10.07;100.00
59513;BME280;45330;51.634;5.562;2022-10-16T04:59:16;101013.28;;;10.02;100.00
59513;BME280;45330;51.634;5.562;2022-10-16T05:01:41;101017.66;;;10.02;100.00
59513;BME280;45330;51.634;5.562;2022-10-16T05:04:07;101030.63;;;10.11;100.00
59513;BME280;45330;51.634;5.562;2022-10-16T05:06:32;101041.88;;;10.16;100.00
59513;BME280;45330;51.634;5.562;2022-10-16T05:08:58;101052.31;;;10.13;100.00
59513;BME280;45330;51.634;5.562;2022-10-16T05:11:23;101035.84;;;10.00;100.00
59513;BME280;45330;51.634;5.562;2022-10-16T05:13:49;101058.38;;;10.10;100.00
59513;BME280;45330;51.634;5.562;2022-10-16T05:16:14;101071.38;;;10.10;100.00
59513;BME280;45330;51.634;5.562;2022-10-16T05:18:40;101063.56;;;10.09;100.00
59513;BME280;45330;51.634;5.562;2022-10-16T05:21:05;101054.91;;;9.99;100.00
59513;BME280;45330;51.634;5.562;2022-10-16T05:23:31;101064.44;;;10.03;100.00
59513;BME280;45330;51.634;5.562;2022-10-16T05:25:57;101073.97;;;10.07;100.00
59513;BME280;45330;51.634;5.562;2022-10-16T05:28:24;101066.19;;;10.03;100.00
59513;BME280;45330;51.634;5.562;2022-10-16T05:30:50;101075.72;;;10.08;100.00
59513;BME280;45330;51.634;5.562;2022-10-16T05:33:16;101060.09;;;9.88;100.00
59513;BME280;45330;51.634;5.562;2022-10-16T05:35:41;101075.69;;;9.87;100.00
59513;BME280;45330;51.634;5.562;2022-10-16T05:38:07;101098.22;;;9.97;100.00
59513;BME280;45330;51.634;5.562;2022-10-16T05:40:32;101099.97;;;9.95;100.00
59513;BME280;45330;51.634;5.562;2022-10-16T05:42:57;101112.09;;;9.96;100.00
59513;BME280;45330;51.634;5.562;2022-10-16T05:45:23;101108.63;;;9.97;100.00
59513;BME280;45330;51.634;5.562;2022-10-16T05:47:48;101100.81;;;9.91;100.00
59513;BME280;45330;51.634;5.562;2022-10-16T05:50:13;101121.63;;;9.91;100.00
59513;BME280;45330;51.634;5.562;2022-10-16T05:52:39;101104.28;;;9.81;100.00
59513;BME280;45330;51.634;5.562;2022-10-16T05:55:04;101114.69;;;9.81;100.00
59513;BME280;45330;51.634;5.562;2022-10-16T05:57:30;101137.22;;;9.91;100.00
59513;BME280;45330;51.634;5.562;2022-10-16T05:59:56;101144.16;;;9.93;100.00
59513;BME280;45330;51.634;5.562;2022-10-16T06:02:21;101125.94;;;9.79;100.00
59513;BME280;45330;51.634;5.562;2022-10-16T06:04:46;101151.94;;;9.93;100.00
59513;BME280;45330;51.634;5.562;2022-10-16T06:07:12;101159.72;;;9.86;100.00
59513;BME280;45330;51.634;5.562;2022-10-16T06:09:37;101132.84;;;9.68;100.00
59513;BME280;45330;51.634;5.562;2022-10-16T06:12:02;101161.47;;;9.79;100.00
59513;BME280;45330;51.634;5.562;2022-10-16T06:14:28;101162.31;;;9.79;100.00
59513;BME280;45330;51.634;5.562;2022-10-16T06:16:53;101149.28;;;9.64;100.00
59513;BME280;45330;51.634;5.562;2022-10-16T06:19:19;101176.22;;;9.85;100.00
59513;BME280;45330;51.634;5.562;2022-10-16T06:21:44;101155.38;;;9.75;100.00
59513;BME280;45330;51.634;5.562;2022-10-16T06:24:10;101175.31;;;9.81;100.00
59513;BME280;45330;51.634;5.562;2022-10-16T06:26:35;101177.91;;;9.81;100.00
59513;BME280;45330;51.634;5.562;2022-10-16T06:29:01;101170.97;;;9.71;100.00
59513;BME280;45330;51.634;5.562;2022-10-16T06:31:28;101170.09;;;9.70;100.00
59513;BME280;45330;51.634;5.562;2022-10-16T06:33:56;101183.13;;;9.78;100.00
59513;BME280;45330;51.634;5.562;2022-10-16T06:36:23;101190.91;;;9.79;100.00
59513;BME280;45330;51.634;5.562;2022-10-16T06:38:50;101175.31;;;9.72;100.00
59513;BME280;45330;51.634;5.562;2022-10-16T06:41:20;101188.31;;;9.86;100.00
59513;BME280;45330;51.634;5.562;2022-10-16T06:43:46;101197.00;;;9.97;100.00
59513;BME280;45330;51.634;5.562;2022-10-16T06:46:14;101200.50;;;9.99;100.00
59513;BME280;45330;51.634;5.562;2022-10-16T06:48:41;101190.09;;;9.98;100.00
59513;BME280;45330;51.634;5.562;2022-10-16T06:51:09;101204.84;;;10.11;100.00
59513;BME280;45330;51.634;5.562;2022-10-16T06:53:37;101198.78;;;10.15;100.00
59513;BME280;45330;51.634;5.562;2022-10-16T06:56:08;101199.66;;;10.22;100.00
59513;BME280;45330;51.634;5.562;2022-10-16T06:58:34;101211.84;;;10.40;100.00
59513;BME280;45330;51.634;5.562;2022-10-16T07:00:59;101205.75;;;10.36;100.00
59513;BME280;45330;51.634;5.562;2022-10-16T07:03:25;101230.06;;;10.57;100.00
59513;BME280;45330;51.634;5.562;2022-10-16T07:05:50;101230.94;;;10.68;100.00
59513;BME280;45330;51.634;5.562;2022-10-16T07:08:15;101229.19;;;10.78;100.00
59513;BME280;45330;51.634;5.562;2022-10-16T07:10:41;101227.47;;;10.85;100.00
59513;BME280;45330;51.634;5.562;2022-10-16T07:13:06;101248.25;;;11.06;100.00
59513;BME280;45330;51.634;5.562;2022-10-16T07:15:32;101252.59;;;11.20;100.00
59513;BME280;45330;51.634;5.562;2022-10-16T07:17:58;101249.91;;;11.32;100.00
59513;BME280;45330;51.634;5.562;2022-10-16T07:20:23;101248.16;;;11.43;100.00
59513;BME280;45330;51.634;5.562;2022-10-16T07:22:49;101259.44;;;11.55;100.00
59513;BME280;45330;51.634;5.562;2022-10-16T07:25:14;101253.31;;;11.65;100.00
59513;BME280;45330;51.634;5.562;2022-10-16T07:27:39;101246.34;;;11.62;100.00
59513;BME280;45330;51.634;5.562;2022-10-16T07:30:05;101274.13;;;11.77;100.00
59513;BME280;45330;51.634;5.562;2022-10-16T07:32:31;101274.09;;;11.79;100.00
59513;BME280;45330;51.634;5.562;2022-10-16T07:34:56;101266.28;;;11.74;100.00
59513;BME280;45330;51.634;5.562;2022-10-16T07:37:22;101264.59;;;11.72;100.00
59513;BME280;45330;51.634;5.562;2022-10-16T07:39:47;101278.50;;;11.69;100.00
59513;BME280;45330;51.634;5.562;2022-10-16T07:42:12;101276.75;;;11.65;100.00
59513;BME280;45330;51.634;5.562;2022-10-16T07:44:38;101289.75;;;11.74;100.00
59513;BME280;45330;51.634;5.562;2022-10-16T07:47:03;101302.78;;;11.74;100.00
59513;BME280;45330;51.634;5.562;2022-10-16T07:49:29;101294.13;;;11.69;100.00
59513;BME280;45330;51.634;5.562;2022-10-16T07:51:54;101291.50;;;11.72;100.00
59513;BME280;45330;51.634;5.562;2022-10-16T07:54:19;101309.72;;;11.80;100.00
59513;BME280;45330;51.634;5.562;2022-10-16T07:56:45;101291.50;;;11.74;100.00
59513;BME280;45330;51.634;5.562;2022-10-16T07:59:10;101282.81;;;11.75;100.00
59513;BME280;45330;51.634;5.562;2022-10-16T08:01:36;101318.38;;;11.97;100.00
59513;BME280;45330;51.634;5.562;2022-10-16T08:04:01;101321.84;;;11.99;100.00
59513;BME280;45330;51.634;5.562;2022-10-16T08:06:26;101320.94;;;12.05;100.00
59513;BME280;45330;51.634;5.562;2022-10-16T08:08:52;101311.41;;;12.03;100.00
59513;BME280;45330;51.634;5.562;2022-10-16T08:11:17;101323.53;;;12.14;100.00
59513;BME280;45330;51.634;5.562;2022-10-16T08:13:43;101314.84;;;12.09;100.00
59513;BME280;45330;51.634;5.562;2022-10-16T08:16:09;101339.13;;;12.21;100.00
59513;BME280;45330;51.634;5.562;2022-10-16T08:18:39;101358.22;;;12.29;100.00
59513;BME280;45330;51.634;5.562;2022-10-16T08:21:05;101357.34;;;12.31;100.00
59513;BME280;45330;51.634;5.562;2022-10-16T08:23:32;101364.28;;;12.37;100.00
59513;BME280;45330;51.634;5.562;2022-10-16T08:26:03;101358.22;;;12.35;100.00
59513;BME280;45330;51.634;5.562;2022-10-16T08:28:29;101365.16;;;12.42;100.00
59513;BME280;45330;51.634;5.562;2022-10-16T08:30:55;101352.13;;;12.34;100.00
59513;BME280;45330;51.634;5.562;2022-10-16T08:33:22;101363.38;;;12.44;100.00
59513;BME280;45330;51.634;5.562;2022-10-16T08:35:53;101373.75;;;12.57;100.00
59513;BME280;45330;51.634;5.562;2022-10-16T08:38:20;101385.03;;;12.63;100.00
59513;BME280;45330;51.634;5.562;2022-10-16T08:40:45;101371.09;;;12.67;100.00
59513;BME280;45330;51.634;5.562;2022-10-16T08:46:25;101386.69;;;12.74;100.00
59513;BME280;45330;51.634;5.562;2022-10-16T08:48:59;101371.94;;;12.68;100.00
59513;BME280;45330;51.634;5.562;2022-10-16T08:51:36;101379.75;;;12.74;100.00
59513;BME280;45330;51.634;5.562;2022-10-16T08:54:34;101394.44;;;12.91;100.00
59513;BME280;45330;51.634;5.562;2022-10-16T08:57:19;101389.16;;;12.94;100.00
59513;BME280;45330;51.634;5.562;2022-10-16T08:59:45;101393.50;;;13.01;100.00
59513;BME280;45330;51.634;5.562;2022-10-16T09:02:24;101403.81;;;13.15;100.00
59513;BME280;45330;51.634;5.562;2022-10-16T09:13:21;101411.59;;;13.26;100.00
59513;BME280;45330;51.634;5.562;2022-10-16T09:15:48;101415.88;;;13.34;100.00
59513;BME280;45330;51.634;5.562;2022-10-16T09:18:34;101410.66;;;13.33;100.00
59513;BME280;45330;51.634;5.562;2022-10-16T09:21:23;101428.91;;;13.42;100.00
59513;BME280;45330;51.634;5.562;2022-10-16T09:23:50;101421.06;;;13.42;100.00
59513;BME280;45330;51.634;5.562;2022-10-16T09:26:16;101432.34;;;13.50;100.00
59513;BME280;45330;51.634;5.562;2022-10-16T09:28:42;101442.72;;;13.57;100.00
59513;BME280;45330;51.634;5.562;2022-10-16T09:31:16;101421.88;;;13.52;100.00
59513;BME280;45330;51.634;5.562;2022-10-16T09:33:43;101427.00;;;13.61;100.00
59513;BME280;45330;51.634;5.562;2022-10-16T09:36:11;101451.28;;;13.76;100.00
59513;BME280;45330;51.634;5.562;2022-10-16T09:38:38;101430.38;;;13.72;100.00
59513;BME280;45330;51.634;5.562;2022-10-16T09:41:14;101448.53;;;13.88;100.00
59513;BME280;45330;51.634;5.562;2022-10-16T09:48:49;101452.69;;;14.06;100.00
59513;BME280;45330;51.634;5.562;2022-10-16T09:51:31;101457.91;;;14.11;100.00
59513;BME280;45330;51.634;5.562;2022-10-16T09:54:02;101459.59;;;14.13;100.00
59513;BME280;45330;51.634;5.562;2022-10-16T09:56:37;101464.81;;;14.16;100.00
59513;BME280;45330;51.634;5.562;2022-10-16T09:59:15;101445.56;;;14.22;100.00
59513;BME280;45330;51.634;5.562;2022-10-16T10:01:44;101439.38;;;14.29;100.00
59513;BME280;45330;51.634;5.562;2022-10-16T10:04:11;101444.53;;;14.35;100.00
59513;BME280;45330;51.634;5.562;2022-10-16T10:06:48;101455.75;;;14.45;100.00
59513;BME280;45330;51.634;5.562;2022-10-16T10:09:20;101467.91;;;14.49;100.00
59513;BME280;45330;51.634;5.562;2022-10-16T10:11:52;101468.75;;;14.53;100.00
59513;BME280;45330;51.634;5.562;2022-10-16T10:17:11;101453.78;;;14.61;100.00
59513;BME280;45330;51.634;5.562;2022-10-16T10:19:57;101456.47;;;14.58;100.00
59513;BME280;45330;51.634;5.562;2022-10-16T10:25:57;101477.34;;;14.67;100.00
59513;BME280;45330;51.634;5.562;2022-10-16T10:36:16;101499.53;;;15.05;100.00
59513;BME280;45330;51.634;5.562;2022-10-16T10:39:04;101508.22;;;15.07;100.00
59513;BME280;45330;51.634;5.562;2022-10-16T10:44:26;101490.31;;;15.37;100.00
59513;BME280;45330;51.634;5.562;2022-10-16T10:50:18;101492.94;;;15.37;100.00
59513;BME280;45330;51.634;5.562;2022-10-16T10:55:33;101485.72;;;15.52;100.00
59513;BME280;45330;51.634;5.562;2022-10-16T11:01:10;101493.19;;;15.75;100.00
59513;BME280;45330;51.634;5.562;2022-10-16T11:06:23;101487.00;;;15.81;100.00
59513;BME280;45330;51.634;5.562;2022-10-16T11:09:15;101495.53;;;15.93;100.00
59513;BME280;45330;51.634;5.562;2022-10-16T11:12:08;101505.66;;;16.14;100.00
59513;BME280;45330;51.634;5.562;2022-10-16T11:17:26;101502.53;;;16.41;100.00
59513;BME280;45330;51.634;5.562;2022-10-16T11:20:00;101514.38;;;16.61;100.00
59513;BME280;45330;51.634;5.562;2022-10-16T11:22:34;101508.94;;;16.70;97.31
59513;BME280;45330;51.634;5.562;2022-10-16T11:25:18;101497.81;;;16.57;97.69
59513;BME280;45330;51.634;5.562;2022-10-16T11:28:19;101511.91;;;16.53;93.80
59513;BME280;45330;51.634;5.562;2022-10-16T11:33:32;101496.13;;;16.53;94.38
59513;BME280;45330;51.634;5.562;2022-10-16T11:39:24;101517.47;;;16.38;95.98
59513;BME280;45330;51.634;5.562;2022-10-16T11:42:20;101518.75;;;16.17;95.93
59513;BME280;45330;51.634;5.562;2022-10-16T11:47:26;101519.59;;;16.19;92.86
59513;BME280;45330;51.634;5.562;2022-10-16T11:49:59;101525.50;;;16.28;92.67
59513;BME280;45330;51.634;5.562;2022-10-16T11:55:38;101523.59;;;16.37;96.13
59513;BME280;45330;51.634;5.562;2022-10-16T11:58:22;101518.53;;;16.27;94.15
59513;BME280;45330;51.634;5.562;2022-10-16T12:03:41;101521.53;;;16.09;93.65
59513;BME280;45330;51.634;5.562;2022-10-16T12:06:29;101519.06;;;15.98;94.96
59513;BME280;45330;51.634;5.562;2022-10-16T12:08:58;101517.50;;;15.89;94.62
59513;BME280;45330;51.634;5.562;2022-10-16T12:14:05;101500.34;;;15.67;100.00
59513;BME280;45330;51.634;5.562;2022-10-16T12:16:32;101516.97;;;15.66;100.00
59513;BME280;45330;51.634;5.562;2022-10-16T12:19:18;101524.91;;;15.63;100.00
59513;BME280;45330;51.634;5.562;2022-10-16T12:21:44;101530.16;;;15.63;98.11
59513;BME280;45330;51.634;5.562;2022-10-16T12:24:41;101538.03;;;15.59;99.47
59513;BME280;45330;51.634;5.562;2022-10-16T12:27:27;101538.97;;;15.55;97.44
59513;BME280;45330;51.634;5.562;2022-10-16T12:29:58;101546.84;;;15.55;96.38
59513;BME280;45330;51.634;5.562;2022-10-16T12:34:53;101524.84;;;15.66;97.00
59513;BME280;45330;51.634;5.562;2022-10-16T12:37:32;101521.38;;;15.62;98.58
59513;BME280;45330;51.634;5.562;2022-10-16T12:39:59;101530.72;;;15.82;97.67
59513;BME280;45330;51.634;5.562;2022-10-16T12:44:54;101516.50;;;15.95;96.56
59513;BME280;45330;51.634;5.562;2022-10-16T12:49:58;101522.94;;;16.25;94.58
59513;BME280;45330;51.634;5.562;2022-10-16T12:52:36;101529.13;;;16.21;92.37
59513;BME280;45330;51.634;5.562;2022-10-16T12:55:03;101520.75;;;16.02;96.23
59513;BME280;45330;51.634;5.562;2022-10-16T12:58:04;101539.94;;;16.06;95.69
59513;BME280;45330;51.634;5.562;2022-10-16T13:00:45;101522.63;;;15.95;92.09
59513;BME280;45330;51.634;5.562;2022-10-16T13:20:11;101530.41;;;16.92;89.68
59513;BME280;45330;51.634;5.562;2022-10-16T13:28:01;101535.81;;;16.83;85.28
59513;BME280;45330;51.634;5.562;2022-10-16T13:31:14;101530.09;;;16.64;85.53
59513;BME280;45330;51.634;5.562;2022-10-16T13:33:17;101521.00;;;16.35;86.26
59513;BME280;45330;51.634;5.562;2022-10-16T13:35:50;101522.28;;;16.14;90.95
59513;BME280;45330;51.634;5.562;2022-10-16T13:38:22;101543.41;;;16.08;90.50
59513;BME280;45330;51.634;5.562;2022-10-16T13:43:27;101537.72;;;15.83;89.05
59513;BME280;45330;51.634;5.562;2022-10-16T13:46:02;101557.03;;;15.77;95.08
59513;BME280;45330;51.634;5.562;2022-10-16T13:48:29;101554.44;;;15.74;93.96
59513;BME280;45330;51.634;5.562;2022-10-16T13:51:06;101549.38;;;15.63;96.49
59513;BME280;45330;51.634;5.562;2022-10-16T13:53:36;101540.69;;;15.58;96.88
59513;BME280;45330;51.634;5.562;2022-10-16T13:56:04;101530.34;;;15.50;98.69
59513;BME280;45330;51.634;5.562;2022-10-16T13:58:31;101552.00;;;15.61;99.48
59513;BME280;45330;51.634;5.562;2022-10-16T14:00:59;101537.28;;;15.53;99.07
59513;BME280;45330;51.634;5.562;2022-10-16T14:03:27;101538.97;;;15.57;99.60
59513;BME280;45330;51.634;5.562;2022-10-16T14:05:56;101549.13;;;15.78;99.40
59513;BME280;45330;51.634;5.562;2022-10-16T14:08:24;101552.25;;;16.02;96.77
59513;BME280;45330;51.634;5.562;2022-10-16T14:10:52;101559.66;;;16.28;99.37
59513;BME280;45330;51.634;5.562;2022-10-16T14:13:38;101560.84;;;16.59;97.68
59513;BME280;45330;51.634;5.562;2022-10-16T14:16:07;101549.06;;;16.78;95.62
59513;BME280;45330;51.634;5.562;2022-10-16T14:18:34;101545.06;;;17.03;89.80
59513;BME280;45330;51.634;5.562;2022-10-16T14:21:06;101549.88;;;17.24;90.30
59513;BME280;45330;51.634;5.562;2022-10-16T14:23:40;101543.88;;;17.18;89.68
59513;BME280;45330;51.634;5.562;2022-10-16T14:26:18;101546.94;;;16.96;92.20
59513;BME280;45330;51.634;5.562;2022-10-16T14:28:45;101552.59;;;16.76;92.45
59513;BME280;45330;51.634;5.562;2022-10-16T14:31:29;101539.03;;;16.55;98.21
59513;BME280;45330;51.634;5.562;2022-10-16T14:33:55;101542.91;;;16.36;100.00
59513;BME280;45330;51.634;5.562;2022-10-16T14:36:22;101554.09;;;16.44;97.79
59513;BME280;45330;51.634;5.562;2022-10-16T14:39:19;101557.44;;;16.52;99.11
59513;BME280;45330;51.634;5.562;2022-10-16T14:41:47;101547.78;;;16.54;99.80